sensor_id;sensor_type;location;lat;lon;timestamp;temperature;humidity
29577;DHT22;16509;53.862;10.672;2022-08-18T00:01:00;18.30;99.90
29577;DHT22;16509;53.862;10.672;2022-08-18T00:03:27;18.30;99.90
29577;DHT22;16509;53.862;10.672;2022-08-18T00:05:54;18.30;99.90
29577;DHT22;16509;53.862;10.672;2022-08-18T00:08:19;18.30;99.90
29577;DHT22;16509;53.862;10.672;2022-08-18T00:10:45;18.30;99.90
29577;DHT22;16509;53.862;10.672;2022-08-18T00:13:11;18.40;99.90
29577;DHT22;16509;53.862;10.672;2022-08-18T00:15:36;18.30;99.90
29577;DHT22;16509;53.862;10.672;2022-08-18T00:18:02;18.30;99.90
29577;DHT22;16509;53.862;10.672;2022-08-18T00:20:28;18.30;99.90
29577;DHT22;16509;53.862;10.672;2022-08-18T00:22:54;18.30;99.90
29577;DHT22;16509;53.862;10.672;2022-08-18T00:25:21;18.30;99.90
29577;DHT22;16509;53.862;10.672;2022-08-18T00:27:47;18.30;99.90
29577;DHT22;16509;53.862;10.672;2022-08-18T00:30:16;18.40;99.90
29577;DHT22;16509;53.862;10.672;2022-08-18T00:32:48;18.20;99.90
29577;DHT22;16509;53.862;10.672;2022-08-18T00:35:22;18.20;99.90
29577;DHT22;16509;53.862;10.672;2022-08-18T00:37:51;18.20;99.90
29577;DHT22;16509;53.862;10.672;2022-08-18T00:40:20;18.20;99.90
29577;DHT22;16509;53.862;10.672;2022-08-18T00:42:49;18.20;99.90
29577;DHT22;16509;53.862;10.672;2022-08-18T00:45:21;18.20;99.90
29577;DHT22;16509;53.862;10.672;2022-08-18T00:47:48;18.20;99.90
29577;DHT22;16509;53.862;10.672;2022-08-18T00:50:26;18.10;99.90
29577;DHT22;16509;53.862;10.672;2022-08-18T00:53:01;18.20;99.90
29577;DHT22;16509;53.862;10.672;2022-08-18T00:55:29;18.20;99.90
29577;DHT22;16509;53.862;10.672;2022-08-18T00:58:02;18.20;99.90
29577;DHT22;16509;53.862;10.672;2022-08-18T01:00:28;18.20;99.90
29577;DHT22;16509;53.862;10.672;2022-08-18T01:02:58;18.20;99.90
29577;DHT22;16509;53.862;10.672;2022-08-18T01:05:36;18.30;99.90
29577;DHT22;16509;53.862;10.672;2022-08-18T01:08:05;18.30;99.90
29577;DHT22;16509;53.862;10.672;2022-08-18T01:10:35;18.20;99.90
29577;DHT22;16509;53.862;10.672;2022-08-18T01:13:02;18.30;99.90
29577;DHT22;16509;53.862;10.672;2022-08-18T01:15:28;18.20;99.90
29577;DHT22;16509;53.862;10.672;2022-08-18T01:17:54;18.20;99.90
29577;DHT22;16509;53.862;10.672;2022-08-18T01:23:35;18.30;99.90
29577;DHT22;16509;53.862;10.672;2022-08-18T01:26:00;18.30;99.90
29577;DHT22;16509;53.862;10.672;2022-08-18T01:28:40;18.30;99.90
29577;DHT22;16509;53.862;10.672;2022-08-18T01:31:08;18.30;99.90
29577;DHT22;16509;53.862;10.672;2022-08-18T01:33:38;18.30;99.90
29577;DHT22;16509;53.862;10.672;2022-08-18T01:36:15;18.30;99.90
29577;DHT22;16509;53.862;10.672;2022-08-18T01:38:48;18.30;99.90
29577;DHT22;16509;53.862;10.672;2022-08-18T01:41:15;18.30;99.90
29577;DHT22;16509;53.862;10.672;2022-08-18T01:43:40;18.40;99.90
29577;DHT22;16509;53.862;10.672;2022-08-18T01:46:06;18.30;99.90
29577;DHT22;16509;53.862;10.672;2022-08-18T01:48:34;18.30;99.90
29577;DHT22;16509;53.862;10.672;2022-08-18T01:51:03;18.40;99.90
29577;DHT22;16509;53.862;10.672;2022-08-18T01:53:30;18.30;99.90
29577;DHT22;16509;53.862;10.672;2022-08-18T01:55:55;18.40;99.90
29577;DHT22;16509;53.862;10.672;2022-08-18T01:58:21;18.40;99.90
29577;DHT22;16509;53.862;10.672;2022-08-18T02:00:52;18.40;99.90
29577;DHT22;16509;53.862;10.672;2022-08-18T02:03:18;18.40;99.90
29577;DHT22;16509;53.862;10.672;2022-08-18T02:05:46;18.40;99.90
29577;DHT22;16509;53.862;10.672;2022-08-18T02:08:12;18.40;99.90
29577;DHT22;16509;53.862;10.672;2022-08-18T02:10:39;18.40;99.90
29577;DHT22;16509;53.862;10.672;2022-08-18T02:13:06;18.60;99.90
29577;DHT22;16509;53.862;10.672;2022-08-18T02:15:32;18.40;99.90
29577;DHT22;16509;53.862;10.672;2022-08-18T02:17:58;18.20;99.90
29577;DHT22;16509;53.862;10.672;2022-08-18T02:20:24;18.30;99.90
29577;DHT22;16509;53.862;10.672;2022-08-18T02:22:50;18.30;99.90
29577;DHT22;16509;53.862;10.672;2022-08-18T02:25:17;18.30;99.90
29577;DHT22;16509;53.862;10.672;2022-08-18T02:27:44;18.30;99.90
29577;DHT22;16509;53.862;10.672;2022-08-18T02:30:13;18.20;99.90
29577;DHT22;16509;53.862;10.672;2022-08-18T02:32:39;18.30;99.90
29577;DHT22;16509;53.862;10.672;2022-08-18T02:35:06;18.20;99.90
29577;DHT22;16509;53.862;10.672;2022-08-18T02:37:32;18.20;99.90
29577;DHT22;16509;53.862;10.672;2022-08-18T02:39:59;18.30;99.90
29577;DHT22;16509;53.862;10.672;2022-08-18T02:42:25;18.30;99.90
29577;DHT22;16509;53.862;10.672;2022-08-18T02:44:52;18.30;99.90
29577;DHT22;16509;53.862;10.672;2022-08-18T02:47:21;18.30;99.90
29577;DHT22;16509;53.862;10.672;2022-08-18T02:49:47;18.40;99.90
29577;DHT22;16509;53.862;10.672;2022-08-18T02:52:12;18.40;99.90
29577;DHT22;16509;53.862;10.672;2022-08-18T02:54:38;18.40;99.90
29577;DHT22;16509;53.862;10.672;2022-08-18T02:57:08;18.40;99.90
29577;DHT22;16509;53.862;10.672;2022-08-18T02:59:35;18.30;99.90
29577;DHT22;16509;53.862;10.672;2022-08-18T03:02:04;18.30;99.90
29577;DHT22;16509;53.862;10.672;2022-08-18T03:04:31;18.30;99.90
29577;DHT22;16509;53.862;10.672;2022-08-18T03:07:00;18.30;99.90
29577;DHT22;16509;53.862;10.672;2022-08-18T03:09:26;18.60;99.90
29577;DHT22;16509;53.862;10.672;2022-08-18T03:11:52;18.20;99.90
29577;DHT22;16509;53.862;10.672;2022-08-18T03:14:19;18.40;99.90
29577;DHT22;16509;53.862;10.672;2022-08-18T03:16:46;18.30;99.90
29577;DHT22;16509;53.862;10.672;2022-08-18T03:19:13;18.30;99.90
29577;DHT22;16509;53.862;10.672;2022-08-18T03:21:41;18.20;99.90
29577;DHT22;16509;53.862;10.672;2022-08-18T03:24:07;18.20;99.90
29577;DHT22;16509;53.862;10.672;2022-08-18T03:26:34;18.20;99.90
29577;DHT22;16509;53.862;10.672;2022-08-18T03:28:59;18.20;99.90
29577;DHT22;16509;53.862;10.672;2022-08-18T03:31:28;18.10;99.90
29577;DHT22;16509;53.862;10.672;2022-08-18T03:33:56;18.10;99.90
29577;DHT22;16509;53.862;10.672;2022-08-18T03:36:25;18.10;99.90
29577;DHT22;16509;53.862;10.672;2022-08-18T03:38:52;18.10;99.90
29577;DHT22;16509;53.862;10.672;2022-08-18T03:41:20;18.20;99.90
29577;DHT22;16509;53.862;10.672;2022-08-18T03:43:47;18.20;99.90
29577;DHT22;16509;53.862;10.672;2022-08-18T03:46:14;18.10;99.90
29577;DHT22;16509;53.862;10.672;2022-08-18T03:48:42;18.10;99.90
29577;DHT22;16509;53.862;10.672;2022-08-18T03:51:29;18.20;99.90
29577;DHT22;16509;53.862;10.672;2022-08-18T03:53:58;18.10;99.90
29577;DHT22;16509;53.862;10.672;2022-08-18T03:56:27;18.10;99.90
29577;DHT22;16509;53.862;10.672;2022-08-18T03:59:05;18.20;99.90
29577;DHT22;16509;53.862;10.672;2022-08-18T04:01:34;18.20;99.90
29577;DHT22;16509;53.862;10.672;2022-08-18T04:04:04;18.20;99.90
29577;DHT22;16509;53.862;10.672;2022-08-18T04:06:39;18.20;99.90
29577;DHT22;16509;53.862;10.672;2022-08-18T04:09:07;18.20;99.90
29577;DHT22;16509;53.862;10.672;2022-08-18T04:11:35;18.20;99.90
29577;DHT22;16509;53.862;10.672;2022-08-18T04:14:01;18.30;99.90
29577;DHT22;16509;53.862;10.672;2022-08-18T04:16:29;18.30;99.90
29577;DHT22;16509;53.862;10.672;2022-08-18T04:18:56;18.30;99.90
29577;DHT22;16509;53.862;10.672;2022-08-18T04:21:26;18.40;99.90
29577;DHT22;16509;53.862;10.672;2022-08-18T04:23:52;18.40;99.90
29577;DHT22;16509;53.862;10.672;2022-08-18T04:26:17;18.40;99.90
29577;DHT22;16509;53.862;10.672;2022-08-18T04:28:44;18.40;99.90
29577;DHT22;16509;53.862;10.672;2022-08-18T04:31:13;18.50;99.90
29577;DHT22;16509;53.862;10.672;2022-08-18T04:33:40;18.50;99.90
29577;DHT22;16509;53.862;10.672;2022-08-18T04:36:14;18.50;99.90
29577;DHT22;16509;53.862;10.672;2022-08-18T04:38:41;18.50;99.90
29577;DHT22;16509;53.862;10.672;2022-08-18T04:41:07;18.50;99.90
29577;DHT22;16509;53.862;10.672;2022-08-18T04:43:33;18.70;99.90
29577;DHT22;16509;53.862;10.672;2022-08-18T04:45:59;18.70;99.90
29577;DHT22;16509;53.862;10.672;2022-08-18T04:48:34;18.60;99.90
29577;DHT22;16509;53.862;10.672;2022-08-18T04:51:05;18.60;99.90
29577;DHT22;16509;53.862;10.672;2022-08-18T04:53:32;18.60;99.90
29577;DHT22;16509;53.862;10.672;2022-08-18T04:56:32;18.60;99.90
29577;DHT22;16509;53.862;10.672;2022-08-18T05:01:30;18.70;99.90
29577;DHT22;16509;53.862;10.672;2022-08-18T05:03:57;18.70;99.90
29577;DHT22;16509;53.862;10.672;2022-08-18T05:06:24;18.70;99.90
29577;DHT22;16509;53.862;10.672;2022-08-18T05:08:55;18.80;99.90
29577;DHT22;16509;53.862;10.672;2022-08-18T05:11:22;19.60;99.90
29577;DHT22;16509;53.862;10.672;2022-08-18T05:13:49;18.90;99.90
29577;DHT22;16509;53.862;10.672;2022-08-18T05:16:17;18.90;99.90
29577;DHT22;16509;53.862;10.672;2022-08-18T05:18:43;19.00;99.90
29577;DHT22;16509;53.862;10.672;2022-08-18T05:21:10;19.00;99.90
29577;DHT22;16509;53.862;10.672;2022-08-18T05:23:43;19.10;99.90
29577;DHT22;16509;53.862;10.672;2022-08-18T05:26:10;19.10;99.90
29577;DHT22;16509;53.862;10.672;2022-08-18T05:28:38;19.20;99.90
29577;DHT22;16509;53.862;10.672;2022-08-18T05:31:13;19.20;99.90
29577;DHT22;16509;53.862;10.672;2022-08-18T05:33:39;19.20;99.90
29577;DHT22;16509;53.862;10.672;2022-08-18T05:36:16;19.20;99.90
29577;DHT22;16509;53.862;10.672;2022-08-18T05:38:54;19.20;99.90
29577;DHT22;16509;53.862;10.672;2022-08-18T05:41:32;19.20;99.90
29577;DHT22;16509;53.862;10.672;2022-08-18T05:43:59;19.40;99.90
29577;DHT22;16509;53.862;10.672;2022-08-18T05:46:39;19.40;99.90
29577;DHT22;16509;53.862;10.672;2022-08-18T05:49:06;19.50;99.90
29577;DHT22;16509;53.862;10.672;2022-08-18T05:51:43;19.50;99.90
29577;DHT22;16509;53.862;10.672;2022-08-18T05:54:11;19.60;99.90
29577;DHT22;16509;53.862;10.672;2022-08-18T05:56:59;19.60;99.90
29577;DHT22;16509;53.862;10.672;2022-08-18T05:59:34;19.60;99.90
29577;DHT22;16509;53.862;10.672;2022-08-18T06:07:17;19.70;99.90
29577;DHT22;16509;53.862;10.672;2022-08-18T06:09:48;19.70;99.90
29577;DHT22;16509;53.862;10.672;2022-08-18T06:14:43;19.80;99.90
29577;DHT22;16509;53.862;10.672;2022-08-18T06:20:51;19.90;99.90
29577;DHT22;16509;53.862;10.672;2022-08-18T06:26:25;20.00;99.90
29577;DHT22;16509;53.862;10.672;2022-08-18T06:38:07;20.00;99.90
29577;DHT22;16509;53.862;10.672;2022-08-18T06:41:08;19.90;99.90
29577;DHT22;16509;53.862;10.672;2022-08-18T06:43:37;19.90;99.90
29577;DHT22;16509;53.862;10.672;2022-08-18T06:46:11;20.00;99.90
29577;DHT22;16509;53.862;10.672;2022-08-18T06:48:52;20.10;99.90
29577;DHT22;16509;53.862;10.672;2022-08-18T06:51:20;20.10;99.90
29577;DHT22;16509;53.862;10.672;2022-08-18T06:53:50;20.10;99.90
29577;DHT22;16509;53.862;10.672;2022-08-18T06:59:28;20.20;99.90
29577;DHT22;16509;53.862;10.672;2022-08-18T07:04:56;20.30;99.90
29577;DHT22;16509;53.862;10.672;2022-08-18T07:09:58;20.50;99.90
29577;DHT22;16509;53.862;10.672;2022-08-18T07:12:27;20.70;99.90
29577;DHT22;16509;53.862;10.672;2022-08-18T07:15:02;20.80;99.90
29577;DHT22;16509;53.862;10.672;2022-08-18T07:17:35;20.80;99.90
29577;DHT22;16509;53.862;10.672;2022-08-18T07:22:28;20.90;99.90
29577;DHT22;16509;53.862;10.672;2022-08-18T07:24:55;21.00;99.90
29577;DHT22;16509;53.862;10.672;2022-08-18T07:27:46;21.10;99.90
29577;DHT22;16509;53.862;10.672;2022-08-18T07:35:17;21.00;99.90
29577;DHT22;16509;53.862;10.672;2022-08-18T07:37:57;21.00;99.90
29577;DHT22;16509;53.862;10.672;2022-08-18T07:40:32;21.10;99.90
29577;DHT22;16509;53.862;10.672;2022-08-18T07:43:11;21.20;99.90
29577;DHT22;16509;53.862;10.672;2022-08-18T07:45:42;21.20;99.90
29577;DHT22;16509;53.862;10.672;2022-08-18T07:48:29;21.30;99.90
29577;DHT22;16509;53.862;10.672;2022-08-18T07:54:10;21.60;99.90
29577;DHT22;16509;53.862;10.672;2022-08-18T07:57:11;21.80;99.90
29577;DHT22;16509;53.862;10.672;2022-08-18T08:07:29;22.00;99.90
29577;DHT22;16509;53.862;10.672;2022-08-18T08:13:20;22.10;99.90
29577;DHT22;16509;53.862;10.672;2022-08-18T08:18:24;22.10;99.90
29577;DHT22;16509;53.862;10.672;2022-08-18T08:20:55;22.10;99.90
29577;DHT22;16509;53.862;10.672;2022-08-18T08:32:32;22.40;99.90
29577;DHT22;16509;53.862;10.672;2022-08-18T08:37:17;22.50;99.90
29577;DHT22;16509;53.862;10.672;2022-08-18T08:39:45;22.50;99.90
29577;DHT22;16509;53.862;10.672;2022-08-18T08:42:24;22.60;99.90
29577;DHT22;16509;53.862;10.672;2022-08-18T08:44:59;22.80;99.90
29577;DHT22;16509;53.862;10.672;2022-08-18T08:50:28;23.20;99.90
29577;DHT22;16509;53.862;10.672;2022-08-18T08:55:52;23.30;99.90
29577;DHT22;16509;53.862;10.672;2022-08-18T08:58:24;23.50;99.90
29577;DHT22;16509;53.862;10.672;2022-08-18T09:00:51;23.70;99.90
29577;DHT22;16509;53.862;10.672;2022-08-18T09:03:45;23.80;99.90
29577;DHT22;16509;53.862;10.672;2022-08-18T09:06:56;24.00;99.90
29577;DHT22;16509;53.862;10.672;2022-08-18T09:17:44;23.90;99.90
29577;DHT22;16509;53.862;10.672;2022-08-18T09:20:50;23.90;99.90
29577;DHT22;16509;53.862;10.672;2022-08-18T09:23:24;24.10;99.90
29577;DHT22;16509;53.862;10.672;2022-08-18T09:25:56;24.20;99.90
29577;DHT22;16509;53.862;10.672;2022-08-18T09:39:00;24.50;99.90
29577;DHT22;16509;53.862;10.672;2022-08-18T09:41:55;24.60;99.90
29577;DHT22;16509;53.862;10.672;2022-08-18T09:47:06;24.90;99.90
29577;DHT22;16509;53.862;10.672;2022-08-18T09:49:47;24.90;99.90
29577;DHT22;16509;53.862;10.672;2022-08-18T09:57:24;25.30;99.90
29577;DHT22;16509;53.862;10.672;2022-08-18T10:10:52;25.30;99.90
29577;DHT22;16509;53.862;10.672;2022-08-18T10:19:32;25.20;99.90
29577;DHT22;16509;53.862;10.672;2022-08-18T10:22:02;25.20;99.90
29577;DHT22;16509;53.862;10.672;2022-08-18T10:24:53;25.20;99.90
29577;DHT22;16509;53.862;10.672;2022-08-18T10:27:34;25.30;99.90
29577;DHT22;16509;53.862;10.672;2022-08-18T10:30:03;25.50;99.90
29577;DHT22;16509;53.862;10.672;2022-08-18T10:32:39;25.70;99.90
29577;DHT22;16509;53.862;10.672;2022-08-18T10:35:52;25.80;99.90
29577;DHT22;16509;53.862;10.672;2022-08-18T10:37:56;25.90;99.90
29577;DHT22;16509;53.862;10.672;2022-08-18T10:40:22;26.00;99.90
29577;DHT22;16509;53.862;10.672;2022-08-18T10:45:27;25.80;99.90
29577;DHT22;16509;53.862;10.672;2022-08-18T10:50:43;25.90;99.90
29577;DHT22;16509;53.862;10.672;2022-08-18T10:56:04;25.50;99.90
29577;DHT22;16509;53.862;10.672;2022-08-18T11:01:42;25.90;99.90
29577;DHT22;16509;53.862;10.672;2022-08-18T11:04:33;25.70;99.90
29577;DHT22;16509;53.862;10.672;2022-08-18T11:07:31;25.70;99.90
29577;DHT22;16509;53.862;10.672;2022-08-18T11:10:18;25.70;99.90
29577;DHT22;16509;53.862;10.672;2022-08-18T11:13:12;25.90;99.90
29577;DHT22;16509;53.862;10.672;2022-08-18T11:15:46;25.90;99.90
29577;DHT22;16509;53.862;10.672;2022-08-18T11:18:37;25.70;99.90
29577;DHT22;16509;53.862;10.672;2022-08-18T11:24:22;25.40;99.90
29577;DHT22;16509;53.862;10.672;2022-08-18T11:27:00;25.50;99.90
29577;DHT22;16509;53.862;10.672;2022-08-18T11:29:36;25.30;99.90
29577;DHT22;16509;53.862;10.672;2022-08-18T11:35:14;25.80;99.90
29577;DHT22;16509;53.862;10.672;2022-08-18T11:40:45;26.00;99.90
29577;DHT22;16509;53.862;10.672;2022-08-18T11:43:32;25.80;99.90
29577;DHT22;16509;53.862;10.672;2022-08-18T11:46:26;26.00;99.90
29577;DHT22;16509;53.862;10.672;2022-08-18T11:48:52;26.70;99.90
29577;DHT22;16509;53.862;10.672;2022-08-18T11:51:21;26.50;99.90
29577;DHT22;16509;53.862;10.672;2022-08-18T11:56:23;26.90;99.90
29577;DHT22;16509;53.862;10.672;2022-08-18T11:58:59;26.90;99.90
29577;DHT22;16509;53.862;10.672;2022-08-18T12:04:13;26.30;99.90
29577;DHT22;16509;53.862;10.672;2022-08-18T12:12:45;26.00;99.90
29577;DHT22;16509;53.862;10.672;2022-08-18T12:17:42;26.10;99.90
29577;DHT22;16509;53.862;10.672;2022-08-18T12:20:10;26.50;99.90
29577;DHT22;16509;53.862;10.672;2022-08-18T12:22:38;26.60;99.90
29577;DHT22;16509;53.862;10.672;2022-08-18T12:25:07;26.50;99.90
29577;DHT22;16509;53.862;10.672;2022-08-18T12:27:32;26.50;99.90
29577;DHT22;16509;53.862;10.672;2022-08-18T12:29:59;26.90;99.90
29577;DHT22;16509;53.862;10.672;2022-08-18T12:32:28;26.80;99.90
29577;DHT22;16509;53.862;10.672;2022-08-18T12:34:54;26.90;99.90
29577;DHT22;16509;53.862;10.672;2022-08-18T12:37:22;27.00;99.90
29577;DHT22;16509;53.862;10.672;2022-08-18T12:39:48;27.00;99.90
29577;DHT22;16509;53.862;10.672;2022-08-18T12:42:13;27.00;99.90
29577;DHT22;16509;53.862;10.672;2022-08-18T12:44:39;27.10;99.90
29577;DHT22;16509;53.862;10.672;2022-08-18T12:47:13;27.20;99.90
29577;DHT22;16509;53.862;10.672;2022-08-18T12:49:39;27.20;99.90
29577;DHT22;16509;53.862;10.672;2022-08-18T12:52:06;27.90;99.90
29577;DHT22;16509;53.862;10.672;2022-08-18T12:54:32;28.00;99.90
29577;DHT22;16509;53.862;10.672;2022-08-18T12:56:59;28.60;99.90
29577;DHT22;16509;53.862;10.672;2022-08-18T12:59:25;28.70;99.90
29577;DHT22;16509;53.862;10.672;2022-08-18T13:01:51;28.50;99.90
29577;DHT22;16509;53.862;10.672;2022-08-18T13:04:16;28.80;99.90
29577;DHT22;16509;53.862;10.672;2022-08-18T13:06:48;27.20;99.90
29577;DHT22;16509;53.862;10.672;2022-08-18T13:09:14;28.10;99.90
29577;DHT22;16509;53.862;10.672;2022-08-18T13:11:40;27.80;99.90
29577;DHT22;16509;53.862;10.672;2022-08-18T13:14:06;28.20;99.90
29577;DHT22;16509;53.862;10.672;2022-08-18T13:16:35;28.20;99.90
29577;DHT22;16509;53.862;10.672;2022-08-18T13:19:01;28.50;99.90
29577;DHT22;16509;53.862;10.672;2022-08-18T13:21:27;28.80;99.90
29577;DHT22;16509;53.862;10.672;2022-08-18T13:23:53;28.30;99.90
29577;DHT22;16509;53.862;10.672;2022-08-18T13:26:29;28.30;99.90
29577;DHT22;16509;53.862;10.672;2022-08-18T13:28:55;28.20;99.90
29577;DHT22;16509;53.862;10.672;2022-08-18T13:31:22;27.90;99.90
29577;DHT22;16509;53.862;10.672;2022-08-18T13:33:47;27.50;99.90
29577;DHT22;16509;53.862;10.672;2022-08-18T13:36:14;27.40;99.90
29577;DHT22;16509;53.862;10.672;2022-08-18T13:38:40;27.20;99.90
29577;DHT22;16509;53.862;10.672;2022-08-18T13:41:07;27.40;99.90
29577;DHT22;16509;53.862;10.672;2022-08-18T13:43:36;27.40;99.90
29577;DHT22;16509;53.862;10.672;2022-08-18T13:46:04;27.40;99.90
29577;DHT22;16509;53.862;10.672;2022-08-18T13:48:30;27.70;99.90
29577;DHT22;16509;53.862;10.672;2022-08-18T13:50:57;27.80;99.90
29577;DHT22;16509;53.862;10.672;2022-08-18T13:53:24;27.60;99.90
29577;DHT22;16509;53.862;10.672;2022-08-18T13:55:50;27.30;99.90
29577;DHT22;16509;53.862;10.672;2022-08-18T13:58:16;27.20;99.90
29577;DHT22;16509;53.862;10.672;2022-08-18T14:00:43;27.10;99.90
29577;DHT22;16509;53.862;10.672;2022-08-18T14:03:09;26.80;99.90
29577;DHT22;16509;53.862;10.672;2022-08-18T14:05:36;26.50;99.90
29577;DHT22;16509;53.862;10.672;2022-08-18T14:08:03;26.20;99.90
29577;DHT22;16509;53.862;10.672;2022-08-18T14:10:29;26.30;99.90
29577;DHT22;16509;53.862;10.672;2022-08-18T14:12:58;26.30;99.90
29577;DHT22;16509;53.862;10.672;2022-08-18T14:15:25;26.40;99.90
29577;DHT22;16509;53.862;10.672;2022-08-18T14:17:51;26.60;99.90
29577;DHT22;16509;53.862;10.672;2022-08-18T14:20:17;26.50;99.90
29577;DHT22;16509;53.862;10.672;2022-08-18T14:23:02;26.50;99.90
29577;DHT22;16509;53.862;10.672;2022-08-18T14:25:47;26.40;99.90
29577;DHT22;16509;53.862;10.672;2022-08-18T14:28:32;26.30;99.90
29577;DHT22;16509;53.862;10.672;2022-08-18T14:31:00;26.30;99.90
29577;DHT22;16509;53.862;10.672;2022-08-18T14:33:30;26.10;99.90
29577;DHT22;16509;53.862;10.672;2022-08-18T14:35:56;26.10;99.90
29577;DHT22;16509;53.862;10.672;2022-08-18T14:38:22;26.00;99.90
29577;DHT22;16509;53.862;10.672;2022-08-18T14:40:48;25.90;99.90
29577;DHT22;16509;53.862;10.672;2022-08-18T14:43:16;25.80;99.90
29577;DHT22;16509;53.862;10.672;2022-08-18T14:45:43;25.60;99.90
29577;DHT22;16509;53.862;10.672;2022-08-18T14:48:16;25.70;99.90
29577;DHT22;16509;53.862;10.672;2022-08-18T14:50:45;25.70;99.90
29577;DHT22;16509;53.862;10.672;2022-08-18T14:53:13;25.80;99.90
29577;DHT22;16509;53.862;10.672;2022-08-18T14:55:39;25.80;99.90
29577;DHT22;16509;53.862;10.672;2022-08-18T14:58:04;25.80;99.90
29577;DHT22;16509;53.862;10.672;2022-08-18T15:00:30;25.90;99.90
29577;DHT22;16509;53.862;10.672;2022-08-18T15:02:56;25.90;99.90
29577;DHT22;16509;53.862;10.672;2022-08-18T15:05:23;25.90;99.90
29577;DHT22;16509;53.862;10.672;2022-08-18T15:07:48;26.00;99.90
29577;DHT22;16509;53.862;10.672;2022-08-18T15:10:14;26.00;99.90
29577;DHT22;16509;53.862;10.672;2022-08-18T15:12:41;26.10;99.90
29577;DHT22;16509;53.862;10.672;2022-08-18T15:15:09;26.10;99.90
29577;DHT22;16509;53.862;10.672;2022-08-18T15:17:37;26.10;99.90
29577;DHT22;16509;53.862;10.672;2022-08-18T15:20:05;26.20;99.90
29577;DHT22;16509;53.862;10.672;2022-08-18T15:22:37;26.30;99.90
29577;DHT22;16509;53.862;10.672;2022-08-18T15:25:22;26.30;99.90
29577;DHT22;16509;53.862;10.672;2022-08-18T15:28:07;26.30;99.90
29577;DHT22;16509;53.862;10.672;2022-08-18T15:30:34;26.20;99.90
29577;DHT22;16509;53.862;10.672;2022-08-18T15:33:01;26.10;99.90
29577;DHT22;16509;53.862;10.672;2022-08-18T15:35:27;25.90;99.90
29577;DHT22;16509;53.862;10.672;2022-08-18T15:37:53;25.90;99.90
29577;DHT22;16509;53.862;10.672;2022-08-18T15:40:22;25.90;99.90
29577;DHT22;16509;53.862;10.672;2022-08-18T15:42:50;25.90;99.90
29577;DHT22;16509;53.862;10.672;2022-08-18T15:45:22;25.90;99.90
29577;DHT22;16509;53.862;10.672;2022-08-18T15:47:53;25.80;99.90
29577;DHT22;16509;53.862;10.672;2022-08-18T15:50:20;25.80;99.90
29577;DHT22;16509;53.862;10.672;2022-08-18T15:52:47;25.80;99.90
29577;DHT22;16509;53.862;10.672;2022-08-18T15:55:18;25.80;99.90
29577;DHT22;16509;53.862;10.672;2022-08-18T15:57:44;25.80;99.90
29577;DHT22;16509;53.862;10.672;2022-08-18T16:00:11;25.70;99.90
29577;DHT22;16509;53.862;10.672;2022-08-18T16:02:37;25.70;99.90
29577;DHT22;16509;53.862;10.672;2022-08-18T16:05:05;25.80;99.90
29577;DHT22;16509;53.862;10.672;2022-08-18T16:07:31;25.80;99.90
29577;DHT22;16509;53.862;10.672;2022-08-18T16:09:56;25.80;99.90
29577;DHT22;16509;53.862;10.672;2022-08-18T16:12:22;25.70;99.90
29577;DHT22;16509;53.862;10.672;2022-08-18T16:14:47;25.60;99.90
29577;DHT22;16509;53.862;10.672;2022-08-18T16:17:16;25.50;99.90
29577;DHT22;16509;53.862;10.672;2022-08-18T16:19:43;25.50;99.90
29577;DHT22;16509;53.862;10.672;2022-08-18T16:22:09;25.40;99.90
29577;DHT22;16509;53.862;10.672;2022-08-18T16:24:34;24.60;99.90
29577;DHT22;16509;53.862;10.672;2022-08-18T16:27:00;25.30;99.90
29577;DHT22;16509;53.862;10.672;2022-08-18T16:29:25;25.40;99.90
29577;DHT22;16509;53.862;10.672;2022-08-18T16:31:51;25.40;99.90
29577;DHT22;16509;53.862;10.672;2022-08-18T16:34:17;25.40;99.90
29577;DHT22;16509;53.862;10.672;2022-08-18T16:36:42;25.30;99.90
29577;DHT22;16509;53.862;10.672;2022-08-18T16:39:08;25.30;99.90
29577;DHT22;16509;53.862;10.672;2022-08-18T16:41:34;25.20;99.90
29577;DHT22;16509;53.862;10.672;2022-08-18T16:44:00;25.20;99.90
29577;DHT22;16509;53.862;10.672;2022-08-18T16:46:26;25.10;99.90
29577;DHT22;16509;53.862;10.672;2022-08-18T16:48:57;25.10;99.90
29577;DHT22;16509;53.862;10.672;2022-08-18T16:51:25;25.00;99.90
29577;DHT22;16509;53.862;10.672;2022-08-18T16:53:52;25.00;99.90
29577;DHT22;16509;53.862;10.672;2022-08-18T16:56:21;25.00;99.90
29577;DHT22;16509;53.862;10.672;2022-08-18T16:58:47;24.90;99.90
29577;DHT22;16509;53.862;10.672;2022-08-18T17:01:32;24.90;99.90
29577;DHT22;16509;53.862;10.672;2022-08-18T17:04:19;24.80;99.90
29577;DHT22;16509;53.862;10.672;2022-08-18T17:06:48;24.70;99.90
29577;DHT22;16509;53.862;10.672;2022-08-18T17:09:16;24.70;99.90
29577;DHT22;16509;53.862;10.672;2022-08-18T17:11:45;24.70;99.90
29577;DHT22;16509;53.862;10.672;2022-08-18T17:17:17;24.60;99.90
29577;DHT22;16509;53.862;10.672;2022-08-18T17:19:44;24.60;99.90
29577;DHT22;16509;53.862;10.672;2022-08-18T17:22:10;24.50;99.90
29577;DHT22;16509;53.862;10.672;2022-08-18T17:24:36;24.50;99.90
29577;DHT22;16509;53.862;10.672;2022-08-18T17:32:36;24.50;99.90
29577;DHT22;16509;53.862;10.672;2022-08-18T17:35:20;24.50;99.90
29577;DHT22;16509;53.862;10.672;2022-08-18T17:37:51;24.50;99.90
29577;DHT22;16509;53.862;10.672;2022-08-18T17:40:29;24.40;99.90
29577;DHT22;16509;53.862;10.672;2022-08-18T17:42:56;24.40;99.90
29577;DHT22;16509;53.862;10.672;2022-08-18T17:45:22;24.30;99.90
29577;DHT22;16509;53.862;10.672;2022-08-18T17:47:59;24.30;99.90
29577;DHT22;16509;53.862;10.672;2022-08-18T17:50:41;24.30;99.90
29577;DHT22;16509;53.862;10.672;2022-08-18T17:53:27;24.20;99.90
29577;DHT22;16509;53.862;10.672;2022-08-18T17:58:38;24.10;99.90
29577;DHT22;16509;53.862;10.672;2022-08-18T18:01:09;24.00;99.90
29577;DHT22;16509;53.862;10.672;2022-08-18T18:03:36;24.00;99.90
29577;DHT22;16509;53.862;10.672;2022-08-18T18:06:30;24.00;99.90
29577;DHT22;16509;53.862;10.672;2022-08-18T18:09:08;24.00;99.90
29577;DHT22;16509;53.862;10.672;2022-08-18T18:11:51;23.90;99.90
29577;DHT22;16509;53.862;10.672;2022-08-18T18:14:32;23.90;99.90
29577;DHT22;16509;53.862;10.672;2022-08-18T18:19:32;23.80;99.90
29577;DHT22;16509;53.862;10.672;2022-08-18T18:22:05;23.80;99.90
29577;DHT22;16509;53.862;10.672;2022-08-18T18:24:33;23.80;99.90
29577;DHT22;16509;53.862;10.672;2022-08-18T18:26:59;23.70;99.90